Time;durP1;ratioP1;P1;durP2;ratioP2;P2;SDS_P1;SDS_P2;PMS_P1;PMS_P2;Temp;Humidity;BMP_temperature;BMP_pressure;BME280_temperature;BME280_humidity;BME280_pressure;Samples;Min_cycle;Max_cycle;Signal;HPM_P1;HPM_P2
2022/01/23 00:00:20;;;;;;;;;;;;;;;13.18;50.71;102059.78;4982793;27;98332;-64
2022/01/23 00:02:47;;;;;;;;;;;;;;;13.19;50.80;102060.59;4981362;28;98814;-63
2022/01/23 00:05:13;;;;;;;;;;;;;;;13.19;50.78;102057.88;4983547;27;99119;-65
2022/01/23 00:07:40;;;;;;;;;;;;;;;13.18;50.63;102050.84;4983659;27;98776;-57
2022/01/23 00:10:07;;;;;;;;;;;;;;;13.19;50.81;102038.94;4982624;27;98609;-56
2022/01/23 00:12:39;;;;;;;;;;;;;;;13.19;50.95;102038.94;4983649;28;98437;-64
2022/01/23 00:17:50;;;;;;;;;;;;;;;13.19;50.97;102034.31;5006961;27;98166;-57
2022/01/23 00:20:16;;;;;;;;;;;;;;;13.18;50.69;102035.41;4981431;28;126052;-64
2022/01/23 00:22:45;;;;;;;;;;;;;;;13.18;50.97;102038.09;4982335;28;117890;-58
2022/01/23 00:30:42;;;;;;;;;;;;;;;13.18;50.73;102040.00;4982503;27;97930;-56
2022/01/23 00:33:09;;;;;;;;;;;;;;;13.18;50.87;102040.81;4983409;28;98495;-64
2022/01/23 00:35:36;;;;;;;;;;;;;;;13.18;51.06;102048.94;4980316;27;98128;-57
2022/01/23 00:38:03;;;;;;;;;;;;;;;13.17;50.98;102051.91;4983027;28;97826;-57
2022/01/23 00:40:29;;;;;;;;;;;;;;;13.19;50.86;102066.81;4981216;27;119178;-57
2022/01/23 00:42:57;;;;;;;;;;;;;;;13.19;51.11;102079.53;4979787;28;102448;-64
2022/01/23 00:45:28;;;;;;;;;;;;;;;13.19;51.09;102083.06;4980485;27;97938;-64
2022/01/23 00:47:59;;;;;;;;;;;;;;;13.19;51.24;102076.84;4980224;28;97840;-64
2022/01/23 00:50:25;;;;;;;;;;;;;;;13.19;51.07;102077.66;4979583;27;100736;-56
2022/01/23 00:52:51;;;;;;;;;;;;;;;13.20;51.13;102071.19;4982914;28;103188;-63
2022/01/23 00:55:17;;;;;;;;;;;;;;;13.21;51.12;102066.59;4980974;27;128538;-64
2022/01/23 00:57:43;;;;;;;;;;;;;;;13.20;50.85;102068.47;4982539;28;117130;-63
2022/01/23 01:00:11;;;;;;;;;;;;;;;13.20;50.97;102059.50;4981180;28;128263;-56
2022/01/23 01:02:37;;;;;;;;;;;;;;;13.21;51.11;102067.41;4981676;28;98828;-64
2022/01/23 01:05:03;;;;;;;;;;;;;;;13.20;51.16;102059.50;4981624;27;127818;-63
2022/01/23 01:07:29;;;;;;;;;;;;;;;13.20;50.97;102079.31;4982223;27;99025;-56
2022/01/23 01:10:00;;;;;;;;;;;;;;;13.21;51.04;102082.84;4981366;27;128071;-56
2022/01/23 01:12:34;;;;;;;;;;;;;;;13.21;51.04;102080.13;4982665;28;98630;-64
2022/01/23 01:31:39;;;;;;;;;;;;;;;13.25;51.15;102073.19;4981299;27;98319;-56
2022/01/23 01:36:35;;;;;;;;;;;;;;;13.25;51.22;102065.88;4981762;27;97774;-56
2022/01/23 01:39:02;;;;;;;;;;;;;;;13.25;51.44;102060.47;4981914;27;97982;-57
2022/01/23 01:41:28;;;;;;;;;;;;;;;13.27;51.20;102062.91;4981054;28;118141;-56
2022/01/23 01:43:54;;;;;;;;;;;;;;;13.27;51.33;102063.72;4981640;27;98533;-64
2022/01/23 01:46:21;;;;;;;;;;;;;;;13.28;51.34;102059.13;4981199;27;117197;-56
2022/01/23 01:48:47;;;;;;;;;;;;;;;13.27;51.42;102052.91;4980995;28;109508;-64
2022/01/23 01:51:16;;;;;;;;;;;;;;;13.27;51.44;102042.06;4981521;27;97953;-56
2022/01/23 01:53:50;;;;;;;;;;;;;;;13.29;51.51;102032.91;4981910;27;98132;-56
2022/01/23 01:56:16;;;;;;;;;;;;;;;13.30;51.48;102029.94;4981213;28;98001;-63
2022/01/23 02:09:30;;;;;;;;;;;;;;;13.33;51.75;102059.22;4979407;28;98094;-64
2022/01/23 02:14:39;;;;;;;;;;;;;;;13.34;51.85;102085.25;4992673;27;98564;-57
2022/01/23 02:17:24;;;;;;;;;;;;;;;13.34;51.66;102096.06;4981129;28;98257;-64
2022/01/23 02:22:53;;;;;;;;;;;;;;;13.35;51.67;102100.41;4978042;28;98093;-64
2022/01/23 02:55:11;;;;;;;;;;;;;;;13.31;52.25;102080.31;4978835;27;117457;-56
2022/01/23 03:00:15;;;;;;;;;;;;;;;13.31;52.27;102076.78;4979423;27;98290;-64
2022/01/23 03:02:47;;;;;;;;;;;;;;;13.30;52.16;102078.69;4980888;27;97870;-64
2022/01/23 03:05:22;;;;;;;;;;;;;;;13.31;52.16;102087.63;4980886;27;98212;-56
2022/01/23 03:10:39;;;;;;;;;;;;;;;13.30;52.52;102085.97;4980193;28;98150;-64
2022/01/23 03:16:16;;;;;;;;;;;;;;;13.31;52.31;102084.91;4983989;27;98083;-63
2022/01/23 03:24:12;;;;;;;;;;;;;;;13.32;52.31;102105.50;4983467;28;97864;-56
2022/01/23 03:24:35;;;;;;;;;;;;;;;13.31;52.70;102106.56;4983465;28;97896;-64
2022/01/23 03:27:25;;;;;;;;;;;;;;;13.32;52.71;102106.31;4984766;27;98205;-64
2022/01/23 03:32:35;;;;;;;;;;;;;;;13.31;52.46;102101.16;4980687;27;97720;-64
2022/01/23 03:35:01;;;;;;;;;;;;;;;13.33;52.49;102101.75;4983954;27;97847;-64
2022/01/23 03:37:27;;;;;;;;;;;;;;;13.33;52.45;102109.88;4983828;28;99508;-64
2022/01/23 03:39:53;;;;;;;;;;;;;;;13.33;52.34;102110.69;4981874;28;127872;-64
2022/01/23 03:42:19;;;;;;;;;;;;;;;13.33;52.87;102107.97;4983422;28;109245;-62
2022/01/23 03:45:03;;;;;;;;;;;;;;;13.35;52.77;102110.44;4983386;27;98046;-64
2022/01/23 03:47:39;;;;;;;;;;;;;;;13.34;52.61;102115.03;4983881;27;98645;-64
2022/01/23 03:50:07;;;;;;;;;;;;;;;13.35;52.78;102118.56;4982575;28;99330;-63
2022/01/23 03:52:33;;;;;;;;;;;;;;;13.35;52.87;102118.56;4982894;28;123147;-56
2022/01/23 03:54:59;;;;;;;;;;;;;;;13.35;52.88;102124.78;4982855;27;115532;-63
2022/01/23 03:57:25;;;;;;;;;;;;;;;13.35;52.99;102118.56;4983660;28;97836;-64
2022/01/23 03:59:51;;;;;;;;;;;;;;;13.35;52.64;102121.25;4980830;27;128121;-58
2022/01/23 04:02:16;;;;;;;;;;;;;;;13.34;52.94;102120.44;4983419;28;109488;-56
2022/01/23 04:04:43;;;;;;;;;;;;;;;13.34;52.93;102117.75;4981943;28;117440;-56
2022/01/23 04:07:12;;;;;;;;;;;;;;;13.35;52.91;102123.97;4982100;28;99271;-64
2022/01/23 04:09:39;;;;;;;;;;;;;;;13.36;52.68;102120.19;4982403;27;98628;-58
2022/01/23 04:12:07;;;;;;;;;;;;;;;13.35;52.85;102126.69;4983533;27;98450;-56
2022/01/23 04:14:35;;;;;;;;;;;;;;;13.35;53.00;102121.25;4982470;27;98118;-56
2022/01/23 04:17:49;;;;;;;;;;;;;;;13.34;52.70;102128.56;4982244;27;98388;-56
2022/01/23 04:20:28;;;;;;;;;;;;;;;13.35;52.83;102132.09;4982396;27;99079;-56
2022/01/23 04:33:54;;;;;;;;;;;;;;;13.35;52.79;102126.69;4980962;28;97973;-64
2022/01/23 05:01:24;;;;;;;;;;;;;;;13.33;53.23;102150.50;4977844;27;98307;-64
2022/01/23 05:04:12;;;;;;;;;;;;;;;13.32;53.05;102154.25;4978554;28;98287;-63
2022/01/23 05:09:11;;;;;;;;;;;;;;;13.33;53.06;102164.84;4980239;27;97956;-56
2022/01/23 05:11:40;;;;;;;;;;;;;;;13.33;53.22;102164.84;4982250;27;97912;-63
2022/01/23 05:14:06;;;;;;;;;;;;;;;13.34;53.27;102169.19;4964187;28;98676;-64
2022/01/23 05:16:33;;;;;;;;;;;;;;;13.34;53.01;102177.31;4979306;28;128398;-57
2022/01/23 05:18:59;;;;;;;;;;;;;;;13.35;53.19;102184.38;4981496;28;97931;-64
2022/01/23 05:24:06;;;;;;;;;;;;;;;13.37;53.20;102178.72;4977760;28;98365;-63
2022/01/23 05:26:39;;;;;;;;;;;;;;;13.38;52.99;102183.06;4981920;27;98011;-64
2022/01/23 05:29:05;;;;;;;;;;;;;;;13.38;52.82;102181.19;4981903;27;97840;-63
2022/01/23 05:31:31;;;;;;;;;;;;;;;13.39;53.35;102184.72;4980729;28;128099;-56
2022/01/23 05:33:57;;;;;;;;;;;;;;;13.40;53.26;102180.94;4980062;27;127399;-55
2022/01/23 05:36:23;;;;;;;;;;;;;;;13.40;53.02;102186.34;4981423;28;128237;-56
2022/01/23 05:38:49;;;;;;;;;;;;;;;13.40;52.89;102187.19;4981161;27;97914;-63
2022/01/23 05:41:15;;;;;;;;;;;;;;;13.41;53.15;102193.41;4979215;28;129593;-64
2022/01/23 05:43:41;;;;;;;;;;;;;;;13.42;52.96;102189.63;4980789;28;127482;-64
2022/01/23 05:46:07;;;;;;;;;;;;;;;13.43;52.99;102194.81;4981077;27;97980;-56
2022/01/23 05:48:33;;;;;;;;;;;;;;;13.42;52.98;102195.88;4980760;28;117347;-63
2022/01/23 05:50:58;;;;;;;;;;;;;;;13.44;53.36;102193.75;4979664;27;129086;-64
2022/01/23 05:53:24;;;;;;;;;;;;;;;13.44;52.79;102195.63;4979838;28;128725;-64
2022/01/23 05:55:50;;;;;;;;;;;;;;;13.44;53.02;102190.19;4980771;28;128163;-56
2022/01/23 05:58:16;;;;;;;;;;;;;;;13.45;52.92;102197.28;4980433;27;118488;-63
2022/01/23 06:00:42;;;;;;;;;;;;;;;13.44;53.11;102193.75;4979255;27;129728;-56
2022/01/23 06:03:08;;;;;;;;;;;;;;;13.45;52.98;102191.88;4980137;28;128205;-64
2022/01/23 06:05:34;;;;;;;;;;;;;;;13.45;53.14;102202.69;4981137;28;98108;-57
2022/01/23 06:08:00;;;;;;;;;;;;;;;13.45;52.85;102200.81;4981513;27;116750;-57
2022/01/23 06:10:27;;;;;;;;;;;;;;;13.45;53.12;102205.41;4980002;28;98757;-56
2022/01/23 06:12:54;;;;;;;;;;;;;;;13.46;53.20;102209.75;4980495;27;98893;-56
2022/01/23 06:15:20;;;;;;;;;;;;;;;13.46;53.25;102213.28;4979747;27;97969;-56
2022/01/23 06:17:46;;;;;;;;;;;;;;;13.46;53.14;102207.03;4990392;27;97811;-57
2022/01/23 06:20:14;;;;;;;;;;;;;;;13.47;52.99;102214.09;4980365;27;98066;-57
2022/01/23 06:22:42;;;;;;;;;;;;;;;13.46;53.30;102207.88;4980375;27;97842;-56
2022/01/23 06:25:10;;;;;;;;;;;;;;;13.47;53.26;102217.63;4980386;27;97972;-56
2022/01/23 06:27:36;;;;;;;;;;;;;;;13.48;53.09;102223.91;4980605;27;99556;-57
2022/01/23 06:30:02;;;;;;;;;;;;;;;13.47;53.04;102222.22;4978824;27;128012;-56
2022/01/23 06:32:28;;;;;;;;;;;;;;;13.47;53.32;102212.22;4980385;27;99001;-56
2022/01/23 06:34:54;;;;;;;;;;;;;;;13.48;52.91;102216.59;4979674;27;126920;-56
2022/01/23 06:37:20;;;;;;;;;;;;;;;13.48;53.03;102226.59;4979939;27;117218;-56
2022/01/23 06:39:46;;;;;;;;;;;;;;;13.48;53.29;102215.75;4977010;27;129096;-56
2022/01/23 06:42:12;;;;;;;;;;;;;;;13.55;53.27;102212.88;4980176;27;97936;-56
2022/01/23 06:44:38;;;;;;;;;;;;;;;13.63;53.12;102221.41;4977657;27;129004;-56
2022/01/23 06:47:05;;;;;;;;;;;;;;;13.70;53.19;102213.97;4980258;27;109457;-56
2022/01/23 06:49:31;;;;;;;;;;;;;;;13.76;52.91;102212.16;4978998;27;122088;-56
2022/01/23 06:51:57;;;;;;;;;;;;;;;13.82;52.99;102216.59;4979580;28;128186;-55
2022/01/23 06:54:23;;;;;;;;;;;;;;;13.87;52.79;102213.97;4976521;28;126798;-56
2022/01/23 06:56:49;;;;;;;;;;;;;;;13.91;53.12;102219.69;4979920;28;97856;-54
2022/01/23 06:59:15;;;;;;;;;;;;;;;13.93;52.67;102223.81;4978106;28;127434;-56
2022/01/23 07:01:40;;;;;;;;;;;;;;;13.95;52.46;102228.97;4980513;28;99050;-56
2022/01/23 07:04:06;;;;;;;;;;;;;;;13.97;52.59;102237.69;4978827;28;101580;-55
2022/01/23 07:06:32;;;;;;;;;;;;;;;13.99;52.76;102235.56;4978579;27;118513;-56
2022/01/23 07:08:58;;;;;;;;;;;;;;;14.01;52.98;102241.56;5009009;27;98978;-63
2022/01/23 07:11:24;;;;;;;;;;;;;;;14.03;52.70;102244.00;4976885;28;98925;-63
2022/01/23 07:13:50;;;;;;;;;;;;;;;14.04;52.52;102253.81;4976028;28;127320;-57
2022/01/23 07:16:16;;;;;;;;;;;;;;;14.05;52.72;102269.00;4975785;27;118706;-57
2022/01/23 07:18:42;;;;;;;;;;;;;;;14.05;52.66;102267.09;4975441;28;128316;-62
2022/01/23 07:21:08;;;;;;;;;;;;;;;14.05;52.70;102261.69;4975940;28;117136;-63
2022/01/23 07:23:34;;;;;;;;;;;;;;;14.06;52.88;102263.31;4974288;28;127774;-56
2022/01/23 07:26:00;;;;;;;;;;;;;;;14.07;52.46;102267.69;4977273;27;97919;-63
2022/01/23 07:28:36;;;;;;;;;;;;;;;14.08;52.58;102276.66;4976533;28;98763;-57
2022/01/23 07:31:04;;;;;;;;;;;;;;;14.08;52.38;102274.75;4976620;27;98421;-56
2022/01/23 07:33:32;;;;;;;;;;;;;;;14.07;52.44;102272.25;4976733;27;98121;-56
2022/01/23 07:35:58;;;;;;;;;;;;;;;14.09;52.53;102281.81;4977008;27;99664;-57
2022/01/23 07:38:24;;;;;;;;;;;;;;;14.09;52.56;102281.81;4972351;28;98355;-56
2022/01/23 07:40:50;;;;;;;;;;;;;;;14.09;52.63;102289.94;4974050;28;118096;-56
2022/01/23 07:43:16;;;;;;;;;;;;;;;14.09;52.80;102278.28;4975436;28;126985;-56
2022/01/23 07:45:43;;;;;;;;;;;;;;;14.10;52.56;102285.34;4975910;27;98154;-56
2022/01/23 07:48:09;;;;;;;;;;;;;;;14.11;52.59;102286.97;4976305;27;98429;-56
2022/01/23 07:50:35;;;;;;;;;;;;;;;14.11;52.73;102284.25;4975257;27;98145;-56
2022/01/23 07:53:01;;;;;;;;;;;;;;;14.13;52.30;102279.44;4973973;28;104988;-56
2022/01/23 07:55:27;;;;;;;;;;;;;;;14.15;52.74;102290.88;4973819;27;118763;-56
2022/01/23 07:57:53;;;;;;;;;;;;;;;14.16;52.52;102293.31;4977634;28;128005;-57
2022/01/23 08:00:19;;;;;;;;;;;;;;;14.16;52.54;102284.38;4978096;27;99179;-56
2022/01/23 08:02:45;;;;;;;;;;;;;;;14.18;52.60;102296.59;4978738;28;98417;-57
2022/01/23 08:05:11;;;;;;;;;;;;;;;14.17;52.62;102292.25;4977133;28;101124;-56
2022/01/23 08:07:38;;;;;;;;;;;;;;;14.21;52.66;102295.28;4977910;28;128551;-56
2022/01/23 08:10:05;;;;;;;;;;;;;;;14.23;52.52;102301.28;4976883;27;120958;-56
2022/01/23 08:12:31;;;;;;;;;;;;;;;14.23;52.30;102296.69;4975401;28;118155;-56
2022/01/23 08:14:58;;;;;;;;;;;;;;;14.25;52.33;102301.84;4978509;27;98000;-56
2022/01/23 08:17:24;;;;;;;;;;;;;;;14.25;52.75;102307.28;4978167;27;116596;-56
2022/01/23 08:19:54;;;;;;;;;;;;;;;14.29;52.67;102300.28;4978500;27;99215;-56
2022/01/23 08:22:21;;;;;;;;;;;;;;;14.33;52.34;102300.63;4978824;27;99466;-56
2022/01/23 08:24:47;;;;;;;;;;;;;;;14.35;52.74;102296.59;4977865;27;98254;-56
2022/01/23 08:27:13;;;;;;;;;;;;;;;14.37;52.45;102297.16;4977557;28;99261;-57
2022/01/23 08:29:39;;;;;;;;;;;;;;;14.40;52.83;102304.81;4977814;27;105662;-56
2022/01/23 08:32:05;;;;;;;;;;;;;;;14.45;52.74;102304.06;4977395;28;128546;-56
2022/01/23 08:34:31;;;;;;;;;;;;;;;14.49;52.64;102302.50;4977312;27;108056;-56
2022/01/23 08:36:57;;;;;;;;;;;;;;;14.56;52.48;102302.34;4978568;28;98485;-57
2022/01/23 08:39:25;;;;;;;;;;;;;;;14.64;52.56;102301.91;4978333;28;100067;-57
2022/01/23 08:41:51;;;;;;;;;;;;;;;14.69;52.28;102308.22;4978316;27;98323;-56
2022/01/23 08:44:23;;;;;;;;;;;;;;;14.68;52.71;102312.00;4978831;28;97905;-56
2022/01/23 08:46:49;;;;;;;;;;;;;;;14.79;52.32;102318.41;4977830;27;98894;-55
2022/01/23 08:49:17;;;;;;;;;;;;;;;14.90;52.07;102313.94;4976845;28;109170;-57
2022/01/23 08:51:43;;;;;;;;;;;;;;;14.95;52.54;102303.16;4977615;27;99034;-56
2022/01/23 08:54:09;;;;;;;;;;;;;;;14.92;52.41;102307.16;4975589;28;98196;-56
2022/01/23 08:56:35;;;;;;;;;;;;;;;15.07;52.29;102311.16;4977279;28;127798;-56
2022/01/23 08:59:01;;;;;;;;;;;;;;;15.13;52.34;102304.69;4977251;28;120278;-56
2022/01/23 09:01:27;;;;;;;;;;;;;;;15.30;51.92;102313.63;4976135;27;126504;-56
2022/01/23 09:03:53;;;;;;;;;;;;;;;15.39;52.26;102308.53;4979091;27;104627;-56
2022/01/23 09:06:20;;;;;;;;;;;;;;;15.37;52.34;102310.72;4978172;27;98722;-56
2022/01/23 09:08:46;;;;;;;;;;;;;;;15.34;52.45;102317.47;4975825;27;98833;-56
2022/01/23 09:12:00;;;;;;;;;;;;;;;15.32;52.67;102316.88;4977435;28;97963;-56
2022/01/23 09:14:06;;;;;;;;;;;;;;;15.31;52.74;102320.69;4969637;28;98257;-56
2022/01/23 09:16:37;;;;;;;;;;;;;;;15.27;52.62;102319.53;4977878;27;99412;-56
2022/01/23 09:19:03;;;;;;;;;;;;;;;15.20;53.31;102321.63;4977736;27;98533;-57
2022/01/23 09:21:29;;;;;;;;;;;;;;;15.16;53.25;102320.50;4977573;27;97920;-57
2022/01/23 09:23:55;;;;;;;;;;;;;;;15.14;53.34;102319.94;4956194;28;98154;-56
2022/01/23 09:26:23;;;;;;;;;;;;;;;15.10;53.55;102318.81;4978175;28;99022;-56
2022/01/23 09:28:49;;;;;;;;;;;;;;;15.09;53.63;102322.56;4976926;27;99059;-57
2022/01/23 09:31:26;;;;;;;;;;;;;;;15.11;53.27;102334.03;4976921;28;98121;-56
2022/01/23 09:33:52;;;;;;;;;;;;;;;15.14;53.19;102328.09;4978829;27;97954;-57
2022/01/23 09:36:18;;;;;;;;;;;;;;;15.15;53.40;102343.31;4975103;27;126813;-57
2022/01/23 09:38:44;;;;;;;;;;;;;;;15.12;53.62;102343.81;4977009;28;98879;-56
2022/01/23 09:41:10;;;;;;;;;;;;;;;15.12;53.49;102350.06;4976365;27;107391;-56
2022/01/23 09:43:38;;;;;;;;;;;;;;;15.16;53.47;102344.94;4977214;28;98248;-56
2022/01/23 09:46:05;;;;;;;;;;;;;;;15.21;53.34;102347.75;4974477;27;122492;-57
2022/01/23 09:48:31;;;;;;;;;;;;;;;15.27;53.50;102340.47;4959439;28;98867;-56
2022/01/23 09:50:57;;;;;;;;;;;;;;;15.26;53.59;102345.06;4956886;28;125659;-58
2022/01/23 09:53:23;;;;;;;;;;;;;;;15.25;53.60;102346.16;4975232;28;108239;-57
2022/01/23 09:55:52;;;;;;;;;;;;;;;15.26;53.61;102355.94;4976504;27;98840;-56
2022/01/23 09:58:18;;;;;;;;;;;;;;;15.29;53.61;102341.00;4975280;28;98757;-56
2022/01/23 10:00:44;;;;;;;;;;;;;;;15.31;53.63;102344.31;4973254;27;127018;-58
2022/01/23 10:03:10;;;;;;;;;;;;;;;15.36;53.39;102344.38;4975394;28;105264;-57
2022/01/23 10:05:37;;;;;;;;;;;;;;;15.38;53.65;102340.34;4974113;27;99089;-56
2022/01/23 10:08:03;;;;;;;;;;;;;;;15.42;53.48;102348.78;4957684;28;100175;-57
2022/01/23 10:10:32;;;;;;;;;;;;;;;15.39;53.55;102352.00;4976535;27;98276;-57
2022/01/23 10:13:00;;;;;;;;;;;;;;;15.35;53.88;102359.03;4977861;27;98036;-57
2022/01/23 10:15:29;;;;;;;;;;;;;;;15.43;53.57;102353.97;4976967;27;98734;-56
2022/01/23 10:17:55;;;;;;;;;;;;;;;15.52;53.38;102354.31;4973147;28;98100;-57
2022/01/23 10:20:21;;;;;;;;;;;;;;;15.55;53.52;102347.56;4978712;27;106406;-56
2022/01/23 10:22:49;;;;;;;;;;;;;;;15.70;53.29;102354.03;4976868;27;97965;-56
2022/01/23 10:25:20;;;;;;;;;;;;;;;15.72;53.64;102342.91;4974443;27;98823;-56
2022/01/23 10:27:54;;;;;;;;;;;;;;;15.75;53.54;102338.84;4975944;27;99205;-56
2022/01/23 10:30:21;;;;;;;;;;;;;;;15.77;53.55;102340.22;4976056;27;98128;-56
2022/01/23 10:33:10;;;;;;;;;;;;;;;15.77;53.36;102345.66;4976297;27;98369;-57
2022/01/23 10:36:02;;;;;;;;;;;;;;;15.74;53.51;102337.19;4975593;27;98314;-56
2022/01/23 10:38:36;;;;;;;;;;;;;;;15.70;53.97;102339.63;4976243;28;98644;-56
2022/01/23 10:41:43;;;;;;;;;;;;;;;15.63;54.05;102339.78;4975307;28;98835;-56
2022/01/23 10:49:47;;;;;;;;;;;;;;;15.62;53.95;102335.44;4975100;27;98095;-56
2022/01/23 10:52:32;;;;;;;;;;;;;;;15.60;54.23;102334.03;4975990;27;98220;-57
2022/01/23 10:55:02;;;;;;;;;;;;;;;15.54;54.16;102346.75;4974759;28;98374;-56
2022/01/23 10:57:39;;;;;;;;;;;;;;;15.54;54.38;102345.94;4977042;28;98668;-56
2022/01/23 11:00:07;;;;;;;;;;;;;;;15.64;53.91;102351.47;4975939;28;99328;-56
2022/01/23 11:02:33;;;;;;;;;;;;;;;15.66;53.96;102347.44;4973992;28;98184;-57
2022/01/23 11:05:01;;;;;;;;;;;;;;;15.66;53.93;102341.19;4955566;28;117659;-56
2022/01/23 11:07:28;;;;;;;;;;;;;;;15.66;54.21;102336.59;4976028;27;98265;-56
2022/01/23 11:10:10;;;;;;;;;;;;;;;15.68;54.30;102341.78;4976004;27;98766;-56
2022/01/23 11:18:05;;;;;;;;;;;;;;;15.77;54.02;102328.53;4973483;28;98286;-57
2022/01/23 11:20:42;;;;;;;;;;;;;;;15.72;54.40;102326.59;4975266;27;99226;-57
2022/01/23 11:23:27;;;;;;;;;;;;;;;15.88;53.92;102328.38;4975762;27;98728;-56
2022/01/23 11:25:55;;;;;;;;;;;;;;;15.80;54.34;102336.16;4973085;28;97854;-56
2022/01/23 11:28:28;;;;;;;;;;;;;;;15.71;54.43;102344.78;4976048;28;99192;-56
2022/01/23 11:30:54;;;;;;;;;;;;;;;15.73;54.42;102341.81;4968984;27;101194;-56
2022/01/23 11:33:20;;;;;;;;;;;;;;;15.81;54.26;102341.34;4976884;28;115054;-57
2022/01/23 11:35:46;;;;;;;;;;;;;;;15.95;53.76;102342.59;4978130;27;99356;-58
2022/01/23 11:38:16;;;;;;;;;;;;;;;16.03;53.90;102337.72;4978656;28;118681;-56
2022/01/23 11:54:42;;;;;;;;;;;;;;;16.23;53.82;102318.03;4975482;28;98349;-56
2022/01/23 11:57:32;;;;;;;;;;;;;;;16.14;54.16;102312.25;4978998;28;109395;-56
2022/01/23 11:59:59;;;;;;;;;;;;;;;16.07;54.20;102325.25;4979297;28;98767;-56
2022/01/23 12:02:39;;;;;;;;;;;;;;;15.99;54.53;102317.56;4978933;28;97929;-57
2022/01/23 12:05:15;;;;;;;;;;;;;;;15.90;54.72;102318.03;4979311;27;98018;-57
2022/01/23 12:07:43;;;;;;;;;;;;;;;15.87;54.49;102315.03;4979377;28;97968;-56
2022/01/23 12:10:14;;;;;;;;;;;;;;;15.83;54.62;102325.59;4980127;27;98738;-57
2022/01/23 12:12:44;;;;;;;;;;;;;;;15.80;54.80;102320.69;4980178;27;98328;-65
2022/01/23 12:18:21;;;;;;;;;;;;;;;15.79;54.41;102321.75;4974975;28;98312;-56
2022/01/23 12:20:48;;;;;;;;;;;;;;;15.80;54.60;102317.97;4978820;27;98961;-63
2022/01/23 12:23:14;;;;;;;;;;;;;;;15.92;54.29;102320.53;4979569;28;120219;-56
2022/01/23 12:25:51;;;;;;;;;;;;;;;16.10;54.20;102311.97;4979492;27;98313;-63
2022/01/23 12:28:31;;;;;;;;;;;;;;;16.25;53.85;102307.72;4978399;28;98224;-63
2022/01/23 12:31:15;;;;;;;;;;;;;;;16.35;53.87;102307.81;4979017;27;98334;-63
2022/01/23 12:33:41;;;;;;;;;;;;;;;16.43;53.92;102305.41;4979109;28;98337;-63
2022/01/23 12:36:15;;;;;;;;;;;;;;;16.54;53.82;102300.00;4979437;27;97948;-64
2022/01/23 12:38:46;;;;;;;;;;;;;;;16.57;53.63;102297.59;4979655;27;97898;-58
2022/01/23 12:41:26;;;;;;;;;;;;;;;16.52;54.02;102302.19;4978324;28;111082;-57
2022/01/23 12:43:57;;;;;;;;;;;;;;;16.45;53.96;102299.69;4976882;27;98595;-65
2022/01/23 12:46:28;;;;;;;;;;;;;;;16.42;54.02;102292.88;4979423;27;113720;-64
2022/01/23 12:48:54;;;;;;;;;;;;;;;16.41;54.11;102299.41;4979226;27;98013;-57
2022/01/23 12:51:20;;;;;;;;;;;;;;;16.40;54.27;102295.03;4978950;27;98971;-57
2022/01/23 12:53:46;;;;;;;;;;;;;;;16.36;54.46;102301.28;4979910;28;98559;-57
2022/01/23 12:56:25;;;;;;;;;;;;;;;16.27;54.65;102306.41;4979915;27;98436;-65
2022/01/23 12:58:55;;;;;;;;;;;;;;;16.22;54.46;102302.78;4978520;28;98048;-57
2022/01/23 13:01:23;;;;;;;;;;;;;;;16.17;54.44;102309.03;4978986;27;98968;-57
2022/01/23 13:03:52;;;;;;;;;;;;;;;16.13;54.67;102313.34;4978285;27;98456;-64
2022/01/23 13:06:29;;;;;;;;;;;;;;;16.12;54.60;102311.72;4979466;27;99226;-57
2022/01/23 13:09:33;;;;;;;;;;;;;;;16.11;54.54;102305.47;4978315;27;97899;-65
2022/01/23 13:12:52;;;;;;;;;;;;;;;16.14;54.58;102323.13;4971116;28;99027;-57
2022/01/23 13:18:09;;;;;;;;;;;;;;;16.13;54.53;102311.44;4976206;27;98129;-59
2022/01/23 13:29:54;;;;;;;;;;;;;;;15.98;55.00;102322.19;4973883;28;98008;-64
2022/01/23 13:32:15;;;;;;;;;;;;;;;16.01;54.68;102324.41;4968951;28;100416;-57
2022/01/23 13:34:51;;;;;;;;;;;;;;;16.00;54.76;102316.50;4976828;27;98320;-57
2022/01/23 13:37:22;;;;;;;;;;;;;;;16.03;54.89;102316.78;4977182;28;98546;-57
2022/01/23 13:40:00;;;;;;;;;;;;;;;16.09;54.87;102312.22;4976971;27;98323;-64
2022/01/23 13:42:57;;;;;;;;;;;;;;;16.09;54.74;102313.03;4977323;27;97919;-64
2022/01/23 14:02:18;;;;;;;;;;;;;;;16.02;54.97;102307.00;4973742;27;97909;-64
2022/01/23 14:04:52;;;;;;;;;;;;;;;16.02;54.68;102309.72;4977479;27;97782;-65
2022/01/23 14:07:27;;;;;;;;;;;;;;;16.00;54.84;102308.34;4976984;28;98581;-64
2022/01/23 14:09:54;;;;;;;;;;;;;;;15.95;55.07;102311.81;4976230;28;109998;-57
2022/01/23 14:12:20;;;;;;;;;;;;;;;15.91;54.86;102310.72;4978396;27;98569;-56
2022/01/23 14:14:54;;;;;;;;;;;;;;;15.88;55.30;102314.78;4977795;27;97966;-56
2022/01/23 14:17:20;;;;;;;;;;;;;;;15.84;55.26;102315.56;4977308;28;99465;-65
2022/01/23 14:20:06;;;;;;;;;;;;;;;15.81;55.25;102316.88;4977294;27;121812;-59
2022/01/23 14:22:34;;;;;;;;;;;;;;;15.77;55.21;102306.78;4971310;28;98274;-64
2022/01/23 14:25:17;;;;;;;;;;;;;;;15.76;55.34;102319.56;4976851;28;98056;-64
2022/01/23 14:27:45;;;;;;;;;;;;;;;15.73;55.08;102320.06;4978054;27;99041;-57
2022/01/23 14:30:14;;;;;;;;;;;;;;;15.68;55.34;102320.03;4977834;27;98774;-64
2022/01/23 14:32:45;;;;;;;;;;;;;;;15.63;55.24;102318.03;4977210;27;98517;-64
2022/01/23 14:35:18;;;;;;;;;;;;;;;15.59;55.55;102333.22;4978982;27;97935;-64
2022/01/23 14:37:44;;;;;;;;;;;;;;;15.57;55.55;102335.38;4977163;27;97899;-58
2022/01/23 14:40:16;;;;;;;;;;;;;;;15.55;55.59;102342.94;4977360;27;98558;-65
2022/01/23 14:42:58;;;;;;;;;;;;;;;15.52;55.30;102346.19;4976265;27;102802;-65
2022/01/23 14:45:24;;;;;;;;;;;;;;;15.50;55.56;102353.78;4969620;27;98186;-64
2022/01/23 14:47:50;;;;;;;;;;;;;;;15.47;55.45;102357.81;4976999;28;98860;-65
2022/01/23 14:50:19;;;;;;;;;;;;;;;15.44;55.41;102362.94;4975544;28;128006;-57
2022/01/23 14:52:45;;;;;;;;;;;;;;;15.41;55.19;102360.75;4977381;28;98144;-64
2022/01/23 14:55:11;;;;;;;;;;;;;;;15.38;55.42;102355.81;4974948;28;98268;-57
2022/01/23 14:57:39;;;;;;;;;;;;;;;15.36;55.16;102364.19;4973612;28;126290;-64
2022/01/23 15:00:05;;;;;;;;;;;;;;;15.35;55.25;102354.41;4975649;27;98406;-64
2022/01/23 15:02:31;;;;;;;;;;;;;;;15.33;55.37;102356.59;4975992;27;97927;-65
2022/01/23 15:04:59;;;;;;;;;;;;;;;15.33;55.42;102358.47;4975005;27;118642;-64
2022/01/23 15:07:25;;;;;;;;;;;;;;;15.31;55.13;102353.28;4975096;28;98693;-60
2022/01/23 15:09:51;;;;;;;;;;;;;;;15.28;55.16;102359.22;4974564;27;98415;-58
2022/01/23 15:12:17;;;;;;;;;;;;;;;15.29;55.44;102360.88;4975038;28;98867;-57
2022/01/23 15:14:44;;;;;;;;;;;;;;;15.27;55.35;102360.28;4975587;28;98020;-57
2022/01/23 15:17:09;;;;;;;;;;;;;;;15.27;55.03;102370.34;4975380;28;98869;-64
2022/01/23 15:19:35;;;;;;;;;;;;;;;15.23;55.10;102373.56;4974203;27;125571;-57
2022/01/23 15:22:02;;;;;;;;;;;;;;;15.21;55.35;102380.34;4975536;28;98121;-57
2022/01/23 15:24:28;;;;;;;;;;;;;;;15.20;55.35;102389.53;4975425;28;97742;-64
2022/01/23 15:26:54;;;;;;;;;;;;;;;15.19;55.30;102387.91;4975781;27;99748;-57
2022/01/23 15:29:20;;;;;;;;;;;;;;;15.17;55.21;102388.16;4974042;28;129011;-57
2022/01/23 15:31:47;;;;;;;;;;;;;;;15.16;55.34;102389.22;4973037;27;98467;-64
2022/01/23 15:34:15;;;;;;;;;;;;;;;15.14;55.47;102388.66;4975286;28;98099;-57
2022/01/23 15:36:41;;;;;;;;;;;;;;;15.13;55.29;102395.19;4974606;27;98237;-64
2022/01/23 15:39:07;;;;;;;;;;;;;;;15.12;55.44;102389.97;4974573;28;98685;-64
2022/01/23 15:41:33;;;;;;;;;;;;;;;15.11;55.42;102393.78;4973045;27;98443;-64
2022/01/23 15:43:59;;;;;;;;;;;;;;;15.10;55.44;102384.81;4973650;28;98183;-57
2022/01/23 15:46:25;;;;;;;;;;;;;;;15.09;55.31;102387.75;4974648;28;127841;-64
2022/01/23 15:48:51;;;;;;;;;;;;;;;15.07;55.33;102379.06;4974926;27;98364;-64